Time;durP1;ratioP1;P1;durP2;ratioP2;P2;SDS_P1;SDS_P2;PMS_P1;PMS_P2;Temp;Humidity;BMP_temperature;BMP_pressure;BME280_temperature;BME280_humidity;BME280_pressure;Samples;Min_cycle;Max_cycle;Signal;HPM_P1;HPM_P2
2021/01/02 00:00:58;;;;;;;28.70;17.17;;;;;;;1.37;96.17;97280.34;4921862;28;45363;-82
2021/01/02 00:03:55;;;;;;;28.42;17.75;;;;;;;0.85;97.95;97286.09;4921366;28;46172;-82
2021/01/02 00:06:36;;;;;;;29.52;17.33;;;;;;;0.61;99.75;97294.03;4919825;28;45504;-82
2021/01/02 00:09:06;;;;;;;28.77;17.92;;;;;;;0.44;100.00;97284.84;4921839;28;45447;-82
2021/01/02 00:11:44;;;;;;;29.92;18.65;;;;;;;0.44;100.00;97279.59;4936007;28;45323;-81
2021/01/02 00:14:20;;;;;;;31.83;18.23;;;;;;;0.29;100.00;97285.03;4921366;28;45225;-82
2021/01/02 00:16:57;;;;;;;32.17;19.60;;;;;;;0.51;100.00;97275.59;4910067;28;45294;-82
2021/01/02 00:19:53;;;;;;;29.08;18.85;;;;;;;0.52;100.00;97277.25;4921534;28;45526;-82
2021/01/02 00:22:53;;;;;;;31.33;19.00;;;;;;;0.61;100.00;97274.91;4921488;28;45475;-81
2021/01/02 00:25:22;;;;;;;27.45;17.23;;;;;;;0.76;100.00;97289.41;4935981;28;48437;-81
2021/01/02 00:28:14;;;;;;;25.05;15.05;;;;;;;0.62;100.00;97282.63;4920883;28;45312;-82
2021/01/02 00:31:00;;;;;;;27.15;16.23;;;;;;;1.06;100.00;97267.03;4921041;28;45228;-81
2021/01/02 00:34:18;;;;;;;26.90;16.55;;;;;;;0.92;100.00;97265.53;4921515;28;45346;-82
2021/01/02 00:36:53;;;;;;;27.55;17.13;;;;;;;0.69;100.00;97262.88;4912642;28;45351;-82
2021/01/02 00:39:45;;;;;;;24.67;16.05;;;;;;;0.99;100.00;97266.72;4921026;28;45324;-81
2021/01/02 00:42:14;;;;;;;30.80;18.10;;;;;;;1.02;99.62;97263.00;4935461;28;45429;-81
2021/01/02 00:44:41;;;;;;;26.48;16.95;;;;;;;0.81;100.00;97266.34;4935937;28;45653;-81
2021/01/02 00:47:10;;;;;;;29.52;17.08;;;;;;;0.70;100.00;97264.53;4921040;28;46096;-81
2021/01/02 00:49:37;;;;;;;24.55;16.05;;;;;;;0.83;100.00;97274.91;4939702;28;45306;-81
2021/01/02 00:52:27;;;;;;;25.85;16.35;;;;;;;1.04;100.00;97263.72;4940168;28;45320;-81
2021/01/02 00:55:06;;;;;;;36.80;20.10;;;;;;;0.55;100.00;97270.94;4934605;28;45325;-81
2021/01/02 00:58:04;;;;;;;42.58;22.52;;;;;;;0.56;100.00;97264.75;4939823;28;45419;-81
2021/01/02 01:00:35;;;;;;;39.03;22.50;;;;;;;0.84;100.00;97260.88;4906366;28;45395;-82
2021/01/02 01:03:03;;;;;;;;;;;;;;;0.93;100.00;97258.47;4923194;28;45199;-82
2021/01/02 01:05:39;;;;;;;34.25;19.65;;;;;;;0.98;100.00;97261.56;4922643;28;45616;-81
2021/01/02 01:08:06;;;;;;;24.80;15.73;;;;;;;0.42;100.00;97263.19;4939713;28;45351;-81
2021/01/02 01:10:34;;;;;;;24.42;15.23;;;;;;;0.64;100.00;97259.78;4922475;28;46025;-81
2021/01/02 01:13:01;;;;;;;25.58;16.10;;;;;;;0.93;100.00;97256.72;4922431;28;45256;-81
2021/01/02 01:15:27;;;;;;;28.25;17.63;;;;;;;0.66;100.00;97254.44;4940065;28;45220;-81
2021/01/02 01:18:02;;;;;;;28.33;16.85;;;;;;;0.77;100.00;97251.81;4939557;28;45510;-81
2021/01/02 01:20:28;;;;;;;27.95;16.17;;;;;;;0.63;100.00;97257.28;4938523;28;46021;-81
2021/01/02 01:23:25;;;;;;;27.02;16.83;;;;;;;0.49;100.00;97259.19;4939764;28;45335;-81
2021/01/02 01:26:21;;;;;;;25.45;15.80;;;;;;;0.35;100.00;97256.75;4936514;28;45652;-81
2021/01/02 01:28:51;;;;;;;27.50;15.82;;;;;;;0.25;100.00;97251.41;4939435;28;45429;-81
2021/01/02 01:31:18;;;;;;;27.77;16.40;;;;;;;0.80;100.00;97246.34;4939514;28;45308;-81
2021/01/02 01:33:51;;;;;;;25.13;15.48;;;;;;;1.04;99.72;97240.13;4939917;28;45397;-81
2021/01/02 01:36:20;;;;;;;27.13;16.70;;;;;;;1.07;98.92;97242.53;4927525;28;45410;-81
2021/01/02 01:38:52;;;;;;;25.55;15.95;;;;;;;1.19;98.54;97234.63;4939426;28;46016;-81
2021/01/02 01:41:18;;;;;;;31.00;18.13;;;;;;;1.26;97.49;97233.19;4939367;28;45250;-81
2021/01/02 01:43:49;;;;;;;30.67;17.33;;;;;;;0.89;98.30;97236.13;4938704;28;45353;-81
2021/01/02 01:46:16;;;;;;;29.23;17.17;;;;;;;0.99;99.45;97230.03;4939587;28;45586;-81
2021/01/02 01:49:07;;;;;;;31.48;18.02;;;;;;;0.80;99.31;97229.78;4939067;28;45370;-81
2021/01/02 01:51:39;;;;;;;28.75;16.65;;;;;;;0.98;100.00;97225.75;4896470;28;45334;-81
2021/01/02 01:54:28;;;;;;;31.92;18.25;;;;;;;0.77;99.43;97224.81;4938800;28;45316;-81
2021/01/02 01:57:02;;;;;;;29.23;17.13;;;;;;;1.06;99.80;97225.13;4939105;28;45333;-81
2021/01/02 01:59:56;;;;;;;33.72;19.25;;;;;;;1.14;99.22;97221.94;4939244;28;45345;-81
2021/01/02 02:02:46;;;;;;;32.10;18.38;;;;;;;0.90;99.66;97224.69;4943379;28;45378;-81
2021/01/02 02:05:17;;;;;;;26.38;16.48;;;;;;;0.79;100.00;97223.75;4952177;28;45291;-81
2021/01/02 02:08:02;;;;;;;28.10;17.48;;;;;;;0.67;100.00;97220.28;4932739;28;45173;-81
2021/01/02 02:10:34;;;;;;;30.48;18.70;;;;;;;0.85;100.00;97207.56;4928703;28;45427;-81
2021/01/02 02:13:09;;;;;;;27.58;16.67;;;;;;;0.84;100.00;97208.50;4937559;28;45328;-81
2021/01/02 02:15:47;;;;;;;30.77;18.40;;;;;;;1.19;99.30;97213.69;4939377;28;45473;-81
2021/01/02 02:18:18;;;;;;;28.75;18.63;;;;;;;1.26;98.51;97213.09;4939078;28;45461;-81
2021/01/02 02:21:12;;;;;;;29.00;17.70;;;;;;;1.07;98.86;97208.47;4937555;28;48214;-80
2021/01/02 02:23:50;;;;;;;29.73;18.13;;;;;;;0.73;100.00;97214.56;4934137;28;45233;-81
2021/01/02 02:26:35;;;;;;;30.08;17.92;;;;;;;0.85;100.00;97215.41;4921360;28;45478;-81
2021/01/02 02:29:13;;;;;;;31.40;18.70;;;;;;;0.83;99.47;97209.47;4938719;28;45382;-81
2021/01/02 02:31:44;;;;;;;30.10;18.70;;;;;;;0.87;100.00;97208.25;4937398;28;48375;-81
2021/01/02 02:34:11;;;;;;;29.15;17.70;;;;;;;0.81;100.00;97221.84;4937542;28;46078;-81
2021/01/02 02:36:37;;;;;;;32.30;18.35;;;;;;;0.73;100.00;97214.56;4939182;28;45354;-81
2021/01/02 02:39:08;;;;;;;27.40;16.77;;;;;;;0.77;100.00;97206.47;4938670;28;45510;-81
2021/01/02 02:41:42;;;;;;;31.70;19.75;;;;;;;1.02;100.00;97205.38;4938643;28;45454;-81
2021/01/02 02:44:09;;;;;;;30.88;17.92;;;;;;;0.66;100.00;97204.72;4921256;28;45365;-81
2021/01/02 02:46:46;;;;;;;30.33;17.85;;;;;;;0.61;100.00;97201.63;4938798;28;45347;-81
2021/01/02 02:49:15;;;;;;;26.13;15.70;;;;;;;0.40;100.00;97194.47;4924727;28;45559;-81
2021/01/02 02:51:55;;;;;;;26.98;16.13;;;;;;;0.49;100.00;97203.41;4921218;28;46843;-81
2021/01/02 02:54:23;;;;;;;31.30;18.13;;;;;;;0.32;100.00;97207.28;4936128;28;45456;-81
2021/01/02 02:56:49;;;;;;;28.67;16.90;;;;;;;0.65;100.00;97203.06;4941710;28;45297;-81
2021/01/02 02:59:15;;;;;;;29.85;18.55;;;;;;;0.85;100.00;97193.63;4942103;28;45363;-82
2021/01/02 03:01:40;;;;;;;29.13;17.90;;;;;;;1.01;99.67;97185.41;4941492;28;45363;-81
2021/01/02 03:04:06;;;;;;;29.25;17.73;;;;;;;0.81;100.00;97195.66;4940597;28;45871;-81
2021/01/02 03:06:32;;;;;;;33.25;19.55;;;;;;;0.73;100.00;97190.19;4941671;28;45429;-81
2021/01/02 03:08:58;;;;;;;38.40;21.08;;;;;;;0.43;100.00;97194.22;4941942;28;45342;-81
2021/01/02 03:11:25;;;;;;;36.17;20.77;;;;;;;0.76;100.00;97194.34;4941341;28;45478;-81
2021/01/02 03:13:54;;;;;;;38.78;21.38;;;;;;;0.50;100.00;97192.81;4941737;28;45389;-81
2021/01/02 03:16:22;;;;;;;42.70;22.20;;;;;;;0.51;100.00;97194.50;4941705;28;45428;-81
2021/01/02 03:18:48;;;;;;;39.92;21.75;;;;;;;0.71;100.00;97192.09;4940347;28;45315;-81
2021/01/02 03:21:13;;;;;;;39.85;20.75;;;;;;;0.96;100.00;97192.78;4940097;28;48278;-81
2021/01/02 03:23:47;;;;;;;40.92;22.73;;;;;;;0.62;100.00;97192.81;4941627;28;45400;-81
2021/01/02 03:26:14;;;;;;;45.60;23.52;;;;;;;0.53;100.00;97194.34;4941152;28;45340;-81
2021/01/02 03:28:40;;;;;;;42.05;21.48;;;;;;;0.56;100.00;97189.72;4941499;28;45336;-81
2021/01/02 03:31:06;;;;;;;34.72;18.83;;;;;;;0.70;100.00;97182.59;4941127;28;45340;-81
2021/01/02 03:33:32;;;;;;;36.97;20.48;;;;;;;0.99;100.00;97175.06;4924172;28;45383;-81
2021/01/02 03:36:01;;;;;;;28.48;16.48;;;;;;;1.07;100.00;97176.22;4940058;28;45314;-81
2021/01/02 03:38:33;;;;;;;27.15;16.25;;;;;;;0.89;99.29;97173.28;4941545;28;45249;-81
2021/01/02 03:40:59;;;;;;;26.27;15.88;;;;;;;1.03;99.87;97170.41;4940781;28;46225;-81
2021/01/02 03:43:25;;;;;;;26.40;15.57;;;;;;;0.77;99.51;97156.75;4939929;28;45942;-81
2021/01/02 03:45:51;;;;;;;29.00;16.23;;;;;;;0.86;99.43;97161.25;4941452;28;45205;-81
2021/01/02 03:48:17;;;;;;;28.88;16.38;;;;;;;0.88;99.12;97156.72;4939717;28;45453;-81
2021/01/02 03:50:42;;;;;;;28.30;17.58;;;;;;;0.58;100.00;97153.81;4940987;28;45926;-81
2021/01/02 03:53:07;;;;;;;29.05;16.48;;;;;;;0.76;99.97;97153.31;4940974;28;45263;-81
2021/01/02 03:55:33;;;;;;;26.75;16.63;;;;;;;0.89;100.00;97152.34;4940821;28;45392;-81
2021/01/02 03:57:58;;;;;;;24.67;15.60;;;;;;;0.90;100.00;97148.75;4939746;28;45559;-81
2021/01/02 04:00:24;;;;;;;28.98;17.27;;;;;;;1.06;99.48;97151.00;4940581;28;45392;-82
2021/01/02 04:02:49;;;;;;;26.85;16.05;;;;;;;1.06;99.71;97148.38;4940917;28;45461;-81
2021/01/02 04:05:15;;;;;;;24.45;15.40;;;;;;;1.13;99.56;97144.31;4938958;28;45339;-81
2021/01/02 04:07:40;;;;;;;26.13;15.88;;;;;;;1.28;98.32;97139.59;4940881;28;45518;-82
2021/01/02 04:10:06;;;;;;;25.67;15.65;;;;;;;1.23;98.51;97139.16;4940533;28;46028;-81
2021/01/02 04:12:32;;;;;;;24.95;15.23;;;;;;;1.16;99.20;97139.66;4923333;28;45498;-81
2021/01/02 04:14:57;;;;;;;22.52;14.82;;;;;;;1.06;99.47;97141.34;4940901;28;45339;-81
2021/01/02 04:17:22;;;;;;;23.80;15.68;;;;;;;1.07;99.92;97135.16;4939439;28;45696;-81
2021/01/02 04:19:48;;;;;;;22.80;15.10;;;;;;;1.19;98.88;97135.97;4940903;28;46029;-81
2021/01/02 04:22:13;;;;;;;23.27;14.98;;;;;;;1.19;98.57;97129.88;4940540;28;45321;-81
2021/01/02 04:24:38;;;;;;;23.63;14.80;;;;;;;1.13;98.78;97131.22;4939474;28;45365;-81
2021/01/02 04:27:06;;;;;;;21.88;14.55;;;;;;;1.20;98.33;97137.63;4940131;28;45606;-81
2021/01/02 04:29:31;;;;;;;24.48;15.07;;;;;;;1.17;100.00;97138.69;4940247;28;46017;-81
2021/01/02 04:31:58;;;;;;;15.60;11.05;;;;;;;1.41;97.57;97134.22;4939281;28;45324;-81
2021/01/02 04:34:24;;;;;;;12.73;8.93;;;;;;;1.56;95.87;97130.31;4940462;28;45340;-80
2021/01/02 04:36:49;;;;;;;11.98;7.85;;;;;;;1.65;93.96;97126.13;4940619;28;45464;-81
2021/01/02 04:39:16;;;;;;;17.20;11.10;;;;;;;1.66;95.71;97124.31;4938865;28;47994;-81
2021/01/02 04:41:41;;;;;;;12.48;8.52;;;;;;;1.75;93.47;97120.91;4940293;28;45481;-81
2021/01/02 04:44:07;;;;;;;12.23;8.75;;;;;;;1.83;92.30;97125.53;4940209;28;45478;-80
2021/01/02 04:46:36;;;;;;;12.93;9.50;;;;;;;1.87;92.10;97124.31;4940557;28;45330;-80
2021/01/02 04:49:03;;;;;;;12.48;8.82;;;;;;;1.89;91.21;97128.50;4939816;28;45353;-80
2021/01/02 04:51:29;;;;;;;11.63;8.25;;;;;;;1.97;91.02;97127.00;4938941;28;45909;-80
2021/01/02 04:54:00;;;;;;;12.57;9.00;;;;;;;1.94;90.68;97120.22;4940056;28;45576;-80
2021/01/02 04:56:27;;;;;;;12.80;8.68;;;;;;;1.96;90.39;97120.91;4939953;28;45407;-79
2021/01/02 04:58:52;;;;;;;11.57;8.55;;;;;;;1.97;90.37;97117.34;4922644;28;47381;-80
2021/01/02 05:01:19;;;;;;;12.57;8.98;;;;;;;1.93;90.29;97123.81;4939808;28;45280;-80
2021/01/02 05:03:46;;;;;;;11.57;8.30;;;;;;;2.00;89.89;97119.69;4940258;28;45381;-81
2021/01/02 05:06:12;;;;;;;10.90;7.65;;;;;;;2.02;89.52;97122.22;4939782;28;45410;-80
2021/01/02 05:08:40;;;;;;;12.77;8.55;;;;;;;1.99;89.30;97117.22;4922602;28;46911;-82
2021/01/02 05:11:07;;;;;;;10.77;7.78;;;;;;;1.99;89.04;97115.41;4939575;28;45213;-81
2021/01/02 05:13:35;;;;;;;11.52;7.45;;;;;;;1.97;88.07;97111.28;4940089;28;45225;-81
2021/01/02 05:16:19;;;;;;;11.00;7.70;;;;;;;2.04;88.30;97113.22;4939910;28;45316;-81
2021/01/02 05:18:52;;;;;;;11.13;7.65;;;;;;;2.03;88.97;97111.56;4921416;28;48111;-80
2021/01/02 05:21:17;;;;;;;11.57;7.63;;;;;;;2.04;89.08;97107.19;4939690;28;45343;-81
2021/01/02 05:24:02;;;;;;;11.23;7.72;;;;;;;2.02;88.00;97102.03;4940023;28;45519;-81
2021/01/02 05:26:28;;;;;;;10.95;7.75;;;;;;;2.08;88.78;97108.56;4928329;28;45289;-81
2021/01/02 05:29:23;;;;;;;12.10;8.20;;;;;;;2.01;87.88;97110.88;4939336;28;45338;-81
2021/01/02 05:31:52;;;;;;;11.45;7.82;;;;;;;2.02;88.77;97112.53;4930479;28;45374;-82
2021/01/02 05:34:20;;;;;;;12.65;8.52;;;;;;;2.04;88.01;97112.41;4938388;28;45279;-81
2021/01/02 05:36:46;;;;;;;11.82;8.55;;;;;;;2.03;88.76;97110.75;4939618;28;45507;-81
2021/01/02 05:39:17;;;;;;;12.10;8.63;;;;;;;2.07;87.76;97113.94;4939357;28;45283;-81
2021/01/02 05:41:50;;;;;;;;;;;;;;;2.06;87.50;97113.13;4938427;28;45751;-81
2021/01/02 05:44:16;;;;;;;11.98;8.00;;;;;;;2.03;87.80;97102.88;4922339;28;45351;-81
2021/01/02 05:47:02;;;;;;;13.15;8.30;;;;;;;2.10;88.10;97105.81;4939566;28;45362;-81
2021/01/02 05:49:40;;;;;;;11.18;7.90;;;;;;;2.08;88.36;97112.97;4928952;28;46477;-81
2021/01/02 05:52:07;;;;;;;11.85;8.35;;;;;;;2.08;87.11;97105.94;4939236;28;46242;-81
2021/01/02 05:54:34;;;;;;;10.18;7.60;;;;;;;2.05;87.22;97108.84;4922110;28;45284;-81
2021/01/02 05:57:01;;;;;;;11.90;7.78;;;;;;;2.07;87.48;97106.06;4938982;28;45332;-82
2021/01/02 05:59:32;;;;;;;10.93;7.80;;;;;;;2.04;87.85;97109.78;4921876;28;47257;-80
2021/01/02 06:01:58;;;;;;;;;;;;;;;2.11;87.08;97113.56;4939335;28;45290;-81
2021/01/02 06:04:23;;;;;;;12.40;8.15;;;;;;;2.14;86.64;97109.81;4936621;28;45506;-80
2021/01/02 06:07:06;;;;;;;10.95;7.75;;;;;;;2.14;85.96;97109.81;4909800;28;45431;-80
2021/01/02 06:09:33;;;;;;;11.27;7.70;;;;;;;2.13;85.87;97109.00;4935829;28;46298;-81
2021/01/02 06:12:02;;;;;;;11.10;7.38;;;;;;;2.16;86.34;97116.63;4938178;28;45284;-81
2021/01/02 06:14:34;;;;;;;11.23;8.15;;;;;;;2.17;85.73;97109.56;4938712;28;45261;-82
2021/01/02 06:17:04;;;;;;;12.95;8.65;;;;;;;2.19;85.72;97116.34;4938599;28;45430;-82
2021/01/02 06:19:30;;;;;;;;;;;;;;;2.18;85.35;97116.47;4938924;28;46274;-82
2021/01/02 06:21:56;;;;;;;11.95;8.20;;;;;;;2.16;86.13;97106.13;4920930;28;45468;-82
2021/01/02 06:24:21;;;;;;;13.07;8.88;;;;;;;2.13;86.32;97110.78;4938664;28;45304;-82
2021/01/02 06:26:46;;;;;;;16.75;11.15;;;;;;;2.10;86.88;97109.28;4937380;28;45423;-81
2021/01/02 06:29:12;;;;;;;11.43;8.02;;;;;;;2.14;86.44;97112.44;4939091;28;45494;-84
2021/01/02 06:31:38;;;;;;;15.25;10.65;;;;;;;2.16;85.82;97108.75;4947192;28;45847;-84
2021/01/02 06:34:05;;;;;;;16.15;10.35;;;;;;;2.16;85.87;97108.75;4952763;28;45629;-86
2021/01/02 06:36:35;;;;;;;15.27;10.27;;;;;;;2.22;85.26;97101.31;4940149;28;45624;-87
2021/01/02 06:39:27;;;;;;;13.75;8.98;;;;;;;2.19;85.62;97105.88;4940824;28;45220;-89
2021/01/02 06:41:54;;;;;;;19.83;12.70;;;;;;;2.21;85.40;97103.13;4928979;28;45657;-88
2021/01/02 06:44:43;;;;;;;15.80;10.88;;;;;;;2.23;85.54;97103.81;4940240;28;45375;-88
2021/01/02 06:47:22;;;;;;;13.88;9.77;;;;;;;2.19;85.71;97105.00;4941791;28;45507;-86
2021/01/02 06:49:50;;;;;;;13.68;9.25;;;;;;;2.23;86.14;97114.31;4941417;28;45558;-88
2021/01/02 06:52:28;;;;;;;13.55;8.57;;;;;;;2.10;86.34;97111.03;4942498;28;45423;-87
2021/01/02 06:54:54;;;;;;;11.93;8.80;;;;;;;2.15;86.43;97114.09;4941816;28;45327;-88
2021/01/02 06:57:26;;;;;;;12.88;8.77;;;;;;;2.16;86.57;97113.16;4941312;28;45351;-87
2021/01/02 06:59:51;;;;;;;12.52;8.65;;;;;;;2.18;86.03;97112.06;4938228;28;45410;-87
2021/01/02 07:02:37;;;;;;;11.38;8.13;;;;;;;2.23;84.81;97114.31;4924153;28;45425;-85
2021/01/02 07:05:03;;;;;;;10.50;7.53;;;;;;;2.26;83.80;97111.44;4950414;28;45589;-84
2021/01/02 07:07:39;;;;;;;12.80;8.70;;;;;;;2.28;82.52;97108.66;4941169;28;45297;-84
2021/01/02 07:10:17;;;;;;;14.45;9.45;;;;;;;2.30;83.17;97101.47;4923745;28;46926;-84
2021/01/02 07:12:42;;;;;;;13.55;9.20;;;;;;;2.31;83.17;97098.75;4939387;28;45700;-85
2021/01/02 07:15:08;;;;;;;12.57;8.77;;;;;;;2.35;82.90;97111.59;4940827;28;45428;-84
2021/01/02 07:17:33;;;;;;;13.07;8.82;;;;;;;2.34;83.62;97102.88;4940753;28;45285;-85
2021/01/02 07:20:05;;;;;;;12.15;8.48;;;;;;;2.35;83.07;97104.53;4941115;28;45525;-84
2021/01/02 07:22:30;;;;;;;14.40;9.25;;;;;;;2.37;82.76;97112.28;4940690;28;45474;-86
2021/01/02 07:25:08;;;;;;;14.10;9.30;;;;;;;2.38;82.06;97111.34;4939126;28;45530;-83
2021/01/02 07:27:39;;;;;;;13.35;9.60;;;;;;;2.37;82.18;97109.66;4940560;28;45289;-86
2021/01/02 07:30:09;;;;;;;13.73;9.93;;;;;;;2.32;81.55;97104.81;4939631;28;47954;-85
2021/01/02 07:32:40;;;;;;;12.30;8.70;;;;;;;2.36;82.34;97114.06;4940608;28;45422;-85
2021/01/02 07:35:10;;;;;;;14.27;8.90;;;;;;;2.36;81.78;97106.19;4946128;28;45278;-83
2021/01/02 07:37:41;;;;;;;13.40;8.55;;;;;;;2.37;83.13;97101.81;4951445;28;45247;-85
2021/01/02 07:40:10;;;;;;;16.63;10.60;;;;;;;2.29;83.51;97111.16;4944581;28;47159;-88
2021/01/02 07:42:39;;;;;;;14.45;9.52;;;;;;;2.33;82.70;97104.69;4933699;28;45885;-88
2021/01/02 07:45:12;;;;;;;13.40;9.93;;;;;;;2.39;81.85;97105.13;4941600;28;45433;-88
2021/01/02 07:47:39;;;;;;;12.52;8.57;;;;;;;2.37;82.55;97102.63;4939708;28;45296;-87
2021/01/02 07:50:08;;;;;;;14.70;9.15;;;;;;;2.36;82.07;97100.13;4940152;28;46175;-88
2021/01/02 07:52:34;;;;;;;13.02;8.20;;;;;;;2.38;81.22;97090.34;4940379;28;45486;-87
2021/01/02 07:55:07;;;;;;;14.02;9.55;;;;;;;2.37;81.47;97088.69;4940294;28;45530;-88
2021/01/02 07:57:32;;;;;;;16.40;10.52;;;;;;;2.36;82.13;97092.25;4941854;28;45659;-86
2021/01/02 07:59:58;;;;;;;13.23;9.00;;;;;;;2.39;81.17;97089.38;4940033;28;45433;-87
2021/01/02 08:02:25;;;;;;;13.95;8.50;;;;;;;2.40;81.29;97098.91;4923048;28;45436;-82
2021/01/02 08:04:54;;;;;;;13.00;9.52;;;;;;;2.40;80.62;97099.72;4940065;28;45425;-83
2021/01/02 08:07:20;;;;;;;13.27;8.77;;;;;;;2.42;80.88;97102.22;4941908;28;45501;-88
2021/01/02 08:09:47;;;;;;;12.05;8.13;;;;;;;2.45;80.34;97101.97;4939308;28;45431;-86
2021/01/02 08:12:14;;;;;;;13.40;8.75;;;;;;;2.42;80.99;97103.03;4922602;28;45982;-85
2021/01/02 08:14:48;;;;;;;13.98;9.45;;;;;;;2.44;80.82;97098.50;4938989;28;45503;-85
2021/01/02 08:17:20;;;;;;;12.65;8.65;;;;;;;2.41;80.65;97097.94;4939991;28;45582;-86
2021/01/02 08:19:45;;;;;;;14.60;8.98;;;;;;;2.44;80.72;97102.94;4938889;28;47540;-85
2021/01/02 08:22:11;;;;;;;14.98;8.95;;;;;;;2.48;81.18;97104.31;4940102;28;45343;-86
2021/01/02 08:24:38;;;;;;;15.57;9.43;;;;;;;2.45;80.88;97104.59;4940164;28;45460;-85
2021/01/02 08:27:04;;;;;;;13.82;9.18;;;;;;;2.46;80.92;97104.44;4939522;28;45464;-84
2021/01/02 08:29:34;;;;;;;11.73;8.13;;;;;;;2.47;80.49;97092.97;4939345;28;46242;-85
2021/01/02 08:32:06;;;;;;;12.45;8.57;;;;;;;2.49;80.02;97105.97;4929031;28;46013;-86
2021/01/02 08:34:33;;;;;;;11.65;8.02;;;;;;;2.51;80.92;97101.44;4936598;28;45479;-84
2021/01/02 08:37:09;;;;;;;13.77;8.70;;;;;;;2.52;80.55;97095.22;4938827;28;45651;-85
2021/01/02 08:39:37;;;;;;;13.82;9.20;;;;;;;2.46;80.41;97104.44;4929081;28;45620;-85
2021/01/02 08:42:04;;;;;;;17.90;11.00;;;;;;;2.44;79.81;97103.75;4933642;28;45835;-84
2021/01/02 08:44:38;;;;;;;14.65;9.27;;;;;;;2.48;80.02;97099.88;4937717;28;45433;-85
2021/01/02 08:47:04;;;;;;;12.82;8.93;;;;;;;2.51;79.84;97100.59;4939010;28;45405;-86
2021/01/02 08:49:36;;;;;;;14.10;8.68;;;;;;;2.50;80.18;97105.03;4938760;28;45371;-85
2021/01/02 08:52:25;;;;;;;14.90;9.90;;;;;;;2.52;81.13;97104.88;4921353;28;45473;-83
2021/01/02 08:54:54;;;;;;;14.10;9.25;;;;;;;2.51;80.26;97111.94;4938154;28;45463;-83
2021/01/02 08:57:27;;;;;;;14.77;8.55;;;;;;;2.45;80.84;97115.09;4938796;28;45581;-82
2021/01/02 09:00:07;;;;;;;14.80;9.65;;;;;;;2.50;80.93;97105.03;4938738;28;45441;-84
2021/01/02 09:02:33;;;;;;;15.57;10.07;;;;;;;2.54;80.34;97110.81;4937037;28;45471;-85
2021/01/02 09:05:04;;;;;;;14.02;9.48;;;;;;;2.55;79.91;97120.34;4938361;28;45443;-86
2021/01/02 09:07:29;;;;;;;13.13;9.20;;;;;;;2.55;80.36;97115.94;4938555;28;45439;-84
2021/01/02 09:10:18;;;;;;;15.70;10.15;;;;;;;2.57;79.48;97107.91;4920901;28;48108;-87
2021/01/02 09:13:12;;;;;;;17.05;10.13;;;;;;;2.60;79.91;97113.75;4940614;28;45280;-86
2021/01/02 09:15:51;;;;;;;13.70;9.45;;;;;;;2.57;79.65;97114.03;4940349;28;45335;-84
2021/01/02 09:18:19;;;;;;;12.13;8.80;;;;;;;2.55;80.34;97117.72;4938075;28;45494;-85
2021/01/02 09:20:44;;;;;;;13.80;9.02;;;;;;;2.55;80.13;97115.94;4941131;28;47900;-87
2021/01/02 09:23:10;;;;;;;14.52;8.75;;;;;;;2.56;79.86;97111.50;4934796;28;45707;-86
2021/01/02 09:25:38;;;;;;;13.30;9.05;;;;;;;2.55;79.92;97118.56;4921719;28;45418;-85
2021/01/02 09:28:16;;;;;;;13.77;9.02;;;;;;;2.56;79.78;97112.34;4937709;28;45427;-83
2021/01/02 09:30:43;;;;;;;13.80;8.57;;;;;;;2.59;79.74;97119.13;4937723;28;46780;-84
2021/01/02 09:33:08;;;;;;;13.88;8.93;;;;;;;2.60;79.68;97123.41;4939101;28;45393;-87
2021/01/02 09:35:42;;;;;;;13.75;9.10;;;;;;;2.61;79.38;97118.03;4937957;28;45389;-84
2021/01/02 09:38:09;;;;;;;13.95;9.30;;;;;;;2.56;79.84;97122.84;4939305;28;45521;-82
2021/01/02 09:40:39;;;;;;;14.95;9.57;;;;;;;2.55;79.71;97123.81;4933816;28;48102;-85
2021/01/02 09:43:07;;;;;;;12.48;8.85;;;;;;;2.61;79.76;97122.44;4933981;28;45454;-86
2021/01/02 09:45:32;;;;;;;14.15;9.18;;;;;;;2.61;80.27;97125.91;4949799;28;45378;-85
2021/01/02 09:47:58;;;;;;;19.23;12.23;;;;;;;2.59;79.41;97137.50;4937351;28;45601;-84
2021/01/02 09:50:24;;;;;;;20.98;12.40;;;;;;;2.61;78.76;97125.06;4938101;28;46222;-84
2021/01/02 09:52:49;;;;;;;14.57;10.10;;;;;;;2.61;78.69;97119.81;4937140;28;45468;-83
2021/01/02 09:55:15;;;;;;;12.95;8.43;;;;;;;2.57;79.72;97118.41;4937183;28;45478;-86
2021/01/02 09:57:40;;;;;;;12.68;8.73;;;;;;;2.63;78.40;97108.22;4938347;28;45628;-83
2021/01/02 10:00:09;;;;;;;15.25;10.15;;;;;;;2.68;78.51;97114.88;4938548;28;45385;-85
2021/01/02 10:02:35;;;;;;;14.65;9.77;;;;;;;2.67;78.80;97113.22;4938737;28;45384;-86
2021/01/02 10:05:00;;;;;;;13.30;8.75;;;;;;;2.65;78.81;97115.16;4944618;28;45447;-84
2021/01/02 10:07:25;;;;;;;14.73;9.43;;;;;;;2.70;79.79;97105.06;4945034;28;45493;-85
2021/01/02 10:09:51;;;;;;;15.93;9.55;;;;;;;2.72;78.62;97111.88;4944468;28;46116;-83
2021/01/02 10:12:18;;;;;;;13.48;8.93;;;;;;;2.69;78.33;97106.88;4944662;28;45229;-83
2021/01/02 10:14:43;;;;;;;15.20;9.90;;;;;;;2.71;78.11;97109.34;4945215;28;45430;-85
2021/01/02 10:17:10;;;;;;;13.10;9.02;;;;;;;2.72;77.59;97111.88;4944700;28;45354;-83
2021/01/02 10:19:43;;;;;;;15.18;9.30;;;;;;;2.70;77.96;97112.94;4944911;28;46408;-84
2021/01/02 10:22:10;;;;;;;14.55;9.95;;;;;;;2.74;78.11;97111.72;4944934;28;45356;-83
2021/01/02 10:24:35;;;;;;;14.32;9.57;;;;;;;2.75;79.00;97106.34;4944915;28;45332;-81
2021/01/02 10:27:01;;;;;;;15.00;9.55;;;;;;;2.75;77.14;97101.09;4944300;28;45390;-79
2021/01/02 10:29:27;;;;;;;17.00;10.00;;;;;;;2.79;79.12;97106.06;4944672;28;45414;-83
2021/01/02 10:31:56;;;;;;;15.55;10.20;;;;;;;2.78;77.77;97105.22;4934460;28;45620;-84
2021/01/02 10:34:21;;;;;;;13.95;8.90;;;;;;;2.68;78.48;97099.13;4946567;28;45307;-83
2021/01/02 10:36:47;;;;;;;14.95;9.35;;;;;;;2.74;77.56;97109.09;4943305;28;45281;-82
2021/01/02 10:39:12;;;;;;;13.60;9.73;;;;;;;2.77;77.52;97106.19;4944599;28;45936;-83
2021/01/02 10:41:39;;;;;;;14.48;9.77;;;;;;;2.76;77.57;97105.38;4944460;28;45417;-82
2021/01/02 10:44:04;;;;;;;15.82;10.43;;;;;;;2.77;77.48;97107.03;4944482;28;45381;-80
2021/01/02 10:46:30;;;;;;;14.57;9.65;;;;;;;2.78;77.43;97118.34;4946270;28;45556;-86
2021/01/02 10:48:55;;;;;;;14.13;9.45;;;;;;;2.77;77.52;97114.06;4944029;28;46544;-81
2021/01/02 10:51:21;;;;;;;20.95;13.35;;;;;;;2.75;77.66;97116.84;4927177;28;45396;-84
2021/01/02 10:53:47;;;;;;;25.48;14.43;;;;;;;2.79;78.07;97109.50;4944128;28;45374;-82
2021/01/02 10:56:15;;;;;;;19.83;11.73;;;;;;;2.76;77.93;97101.91;4944171;28;45476;-82
2021/01/02 10:58:40;;;;;;;20.73;12.88;;;;;;;2.78;78.27;97102.59;4936554;28;45474;-84
2021/01/02 11:01:06;;;;;;;15.20;9.95;;;;;;;2.80;77.81;97098.03;4941269;28;45466;-79
2021/01/02 11:03:33;;;;;;;15.77;9.93;;;;;;;2.74;77.69;97096.81;4944557;28;45391;-84
2021/01/02 11:06:03;;;;;;;14.85;9.82;;;;;;;2.77;77.35;97100.94;4944000;28;45339;-84
2021/01/02 11:08:28;;;;;;;15.07;9.60;;;;;;;2.77;77.56;97093.91;4943453;28;46043;-83
2021/01/02 11:10:54;;;;;;;15.30;10.30;;;;;;;2.78;77.28;97092.09;4943516;28;45288;-83
2021/01/02 11:13:19;;;;;;;13.05;9.02;;;;;;;2.83;76.86;97086.44;4942403;28;45513;-81
2021/01/02 11:15:47;;;;;;;14.70;9.00;;;;;;;2.82;77.56;97082.16;4932711;28;45253;-83
2021/01/02 11:18:12;;;;;;;16.73;10.15;;;;;;;2.84;77.39;97088.13;4922808;28;47990;-80
2021/01/02 11:20:37;;;;;;;17.55;11.23;;;;;;;2.83;77.33;97070.69;4936433;28;45443;-79
2021/01/02 11:23:03;;;;;;;15.07;9.50;;;;;;;2.83;77.02;97076.75;4938784;28;45721;-82
2021/01/02 11:25:28;;;;;;;14.68;9.30;;;;;;;2.83;76.38;97082.00;4939738;28;45541;-82
2021/01/02 11:27:54;;;;;;;13.77;9.45;;;;;;;2.87;77.44;97083.41;4941355;28;47511;-82
2021/01/02 11:30:19;;;;;;;17.35;10.38;;;;;;;2.84;76.73;97077.59;4939237;28;45374;-81
2021/01/02 11:32:45;;;;;;;14.95;9.65;;;;;;;2.89;76.95;97075.41;4927838;28;45422;-80
2021/01/02 11:35:10;;;;;;;16.08;9.88;;;;;;;2.90;76.94;97067.38;4939668;28;45600;-80
2021/01/02 11:37:36;;;;;;;16.95;9.93;;;;;;;2.94;77.01;97080.22;4952598;28;47116;-80
2021/01/02 11:40:02;;;;;;;15.68;10.23;;;;;;;2.92;76.05;97081.19;4938906;28;45467;-82
2021/01/02 11:42:28;;;;;;;13.52;9.82;;;;;;;2.94;76.71;97070.56;4944858;28;45671;-78
2021/01/02 11:44:53;;;;;;;15.95;10.57;;;;;;;2.97;76.33;97077.34;4938671;28;45421;-80